sensor_id;sensor_type;location;lat;lon;timestamp;temperature;humidity
22645;DHT22;11489;50.834;6.752;2022-12-18T00:00:40;-6.80;90.30
22645;DHT22;11489;50.834;6.752;2022-12-18T00:03:06;-6.80;90.30
22645;DHT22;11489;50.834;6.752;2022-12-18T00:05:31;-6.70;90.30
22645;DHT22;11489;50.834;6.752;2022-12-18T00:07:57;-6.70;90.30
22645;DHT22;11489;50.834;6.752;2022-12-18T00:10:23;-6.60;90.30
22645;DHT22;11489;50.834;6.752;2022-12-18T00:12:48;-6.70;90.30
22645;DHT22;11489;50.834;6.752;2022-12-18T00:15:14;-6.60;90.30
22645;DHT22;11489;50.834;6.752;2022-12-18T00:17:40;-6.60;90.30
22645;DHT22;11489;50.834;6.752;2022-12-18T00:20:06;-6.60;90.30
22645;DHT22;11489;50.834;6.752;2022-12-18T00:22:31;-6.60;90.30
22645;DHT22;11489;50.834;6.752;2022-12-18T00:24:57;-6.60;90.20
22645;DHT22;11489;50.834;6.752;2022-12-18T00:27:23;-6.60;90.30
22645;DHT22;11489;50.834;6.752;2022-12-18T00:29:48;-6.60;90.30
22645;DHT22;11489;50.834;6.752;2022-12-18T00:32:14;-6.60;90.30
22645;DHT22;11489;50.834;6.752;2022-12-18T00:34:40;-6.50;90.30
22645;DHT22;11489;50.834;6.752;2022-12-18T00:37:05;-6.50;90.30
22645;DHT22;11489;50.834;6.752;2022-12-18T00:39:31;-6.50;90.30
22645;DHT22;11489;50.834;6.752;2022-12-18T00:41:57;-6.50;90.30
22645;DHT22;11489;50.834;6.752;2022-12-18T00:44:41;-6.50;90.30
22645;DHT22;11489;50.834;6.752;2022-12-18T00:47:06;-6.50;90.20
22645;DHT22;11489;50.834;6.752;2022-12-18T00:49:32;-6.50;90.20
22645;DHT22;11489;50.834;6.752;2022-12-18T00:51:58;-6.50;90.20
22645;DHT22;11489;50.834;6.752;2022-12-18T00:54:23;-6.50;90.20
22645;DHT22;11489;50.834;6.752;2022-12-18T00:56:49;-6.50;90.20
22645;DHT22;11489;50.834;6.752;2022-12-18T00:59:15;-6.50;90.20
22645;DHT22;11489;50.834;6.752;2022-12-18T01:01:41;-6.50;90.20
22645;DHT22;11489;50.834;6.752;2022-12-18T01:04:07;-6.50;90.20
22645;DHT22;11489;50.834;6.752;2022-12-18T01:06:35;-6.50;90.20
22645;DHT22;11489;50.834;6.752;2022-12-18T01:09:01;-6.50;90.20
22645;DHT22;11489;50.834;6.752;2022-12-18T01:11:26;-6.50;90.20
22645;DHT22;11489;50.834;6.752;2022-12-18T01:13:53;-6.50;90.20
22645;DHT22;11489;50.834;6.752;2022-12-18T01:16:19;-6.50;90.20
22645;DHT22;11489;50.834;6.752;2022-12-18T01:18:45;-6.40;90.30
22645;DHT22;11489;50.834;6.752;2022-12-18T01:21:14;-6.40;90.40
22645;DHT22;11489;50.834;6.752;2022-12-18T01:23:40;-6.40;90.40
22645;DHT22;11489;50.834;6.752;2022-12-18T01:26:08;-6.40;90.40
22645;DHT22;11489;50.834;6.752;2022-12-18T01:28:34;-6.40;90.40
22645;DHT22;11489;50.834;6.752;2022-12-18T01:31:33;-6.30;90.40
22645;DHT22;11489;50.834;6.752;2022-12-18T01:34:00;-6.30;90.40
22645;DHT22;11489;50.834;6.752;2022-12-18T01:36:35;-6.30;90.40
22645;DHT22;11489;50.834;6.752;2022-12-18T01:39:07;-6.30;90.40
22645;DHT22;11489;50.834;6.752;2022-12-18T01:41:33;-6.30;90.40
22645;DHT22;11489;50.834;6.752;2022-12-18T01:47:20;-6.30;90.30
22645;DHT22;11489;50.834;6.752;2022-12-18T01:49:47;-6.30;90.30
22645;DHT22;11489;50.834;6.752;2022-12-18T01:52:13;-6.30;90.30
22645;DHT22;11489;50.834;6.752;2022-12-18T01:54:39;-6.30;90.30
22645;DHT22;11489;50.834;6.752;2022-12-18T01:57:05;-6.30;90.30
22645;DHT22;11489;50.834;6.752;2022-12-18T01:59:32;-6.30;90.30
22645;DHT22;11489;50.834;6.752;2022-12-18T02:01:59;-6.30;90.30
22645;DHT22;11489;50.834;6.752;2022-12-18T02:04:26;-6.30;90.30
22645;DHT22;11489;50.834;6.752;2022-12-18T02:09:34;-6.30;90.30
22645;DHT22;11489;50.834;6.752;2022-12-18T02:12:11;-6.30;90.30
22645;DHT22;11489;50.834;6.752;2022-12-18T02:17:20;-6.30;90.20
22645;DHT22;11489;50.834;6.752;2022-12-18T02:28:26;-6.30;90.30
22645;DHT22;11489;50.834;6.752;2022-12-18T02:30:56;-6.40;90.20
22645;DHT22;11489;50.834;6.752;2022-12-18T02:33:26;-6.40;90.20
22645;DHT22;11489;50.834;6.752;2022-12-18T02:35:54;-6.40;90.20
22645;DHT22;11489;50.834;6.752;2022-12-18T02:38:20;-6.40;90.20
22645;DHT22;11489;50.834;6.752;2022-12-18T02:40:48;-6.40;90.10
22645;DHT22;11489;50.834;6.752;2022-12-18T02:43:15;-6.40;90.10
22645;DHT22;11489;50.834;6.752;2022-12-18T02:45:55;-6.40;90.10
22645;DHT22;11489;50.834;6.752;2022-12-18T02:48:33;-6.40;90.10
22645;DHT22;11489;50.834;6.752;2022-12-18T02:56:23;-6.50;90.00
22645;DHT22;11489;50.834;6.752;2022-12-18T02:59:13;-6.50;90.00
22645;DHT22;11489;50.834;6.752;2022-12-18T03:02:01;-6.60;90.00
22645;DHT22;11489;50.834;6.752;2022-12-18T03:04:37;-6.60;90.00
22645;DHT22;11489;50.834;6.752;2022-12-18T03:07:08;-6.60;90.00
22645;DHT22;11489;50.834;6.752;2022-12-18T03:09:38;-6.60;90.00
22645;DHT22;11489;50.834;6.752;2022-12-18T03:12:12;-6.60;90.00
22645;DHT22;11489;50.834;6.752;2022-12-18T03:15:06;-6.60;90.00
22645;DHT22;11489;50.834;6.752;2022-12-18T03:17:34;-6.70;90.10
22645;DHT22;11489;50.834;6.752;2022-12-18T03:20:12;-6.70;90.10
22645;DHT22;11489;50.834;6.752;2022-12-18T03:22:38;-6.60;90.20
22645;DHT22;11489;50.834;6.752;2022-12-18T03:25:10;-6.70;90.20
22645;DHT22;11489;50.834;6.752;2022-12-18T03:27:39;-6.70;90.20
22645;DHT22;11489;50.834;6.752;2022-12-18T03:30:09;-6.60;90.30
22645;DHT22;11489;50.834;6.752;2022-12-18T03:32:47;-6.60;90.30
22645;DHT22;11489;50.834;6.752;2022-12-18T03:35:19;-6.60;90.40
22645;DHT22;11489;50.834;6.752;2022-12-18T03:37:46;-6.60;90.40
22645;DHT22;11489;50.834;6.752;2022-12-18T03:40:11;-6.60;90.40
22645;DHT22;11489;50.834;6.752;2022-12-18T03:42:45;-6.60;90.40
22645;DHT22;11489;50.834;6.752;2022-12-18T03:55:34;-6.50;90.30
22645;DHT22;11489;50.834;6.752;2022-12-18T03:58:02;-6.50;90.30
22645;DHT22;11489;50.834;6.752;2022-12-18T04:00:29;-6.50;90.30
22645;DHT22;11489;50.834;6.752;2022-12-18T04:02:56;-6.50;90.30
22645;DHT22;11489;50.834;6.752;2022-12-18T04:05:27;-6.50;90.20
22645;DHT22;11489;50.834;6.752;2022-12-18T04:07:54;-6.50;90.20
22645;DHT22;11489;50.834;6.752;2022-12-18T04:10:20;-6.50;90.20
22645;DHT22;11489;50.834;6.752;2022-12-18T04:12:46;-6.50;90.20
22645;DHT22;11489;50.834;6.752;2022-12-18T04:15:13;-6.50;90.20
22645;DHT22;11489;50.834;6.752;2022-12-18T04:17:47;-6.50;90.20
22645;DHT22;11489;50.834;6.752;2022-12-18T04:20:13;-6.50;90.20
22645;DHT22;11489;50.834;6.752;2022-12-18T04:22:39;-6.50;90.20
22645;DHT22;11489;50.834;6.752;2022-12-18T04:25:05;-6.50;90.10
22645;DHT22;11489;50.834;6.752;2022-12-18T04:27:30;-6.50;90.10
22645;DHT22;11489;50.834;6.752;2022-12-18T04:29:56;-6.50;90.20
22645;DHT22;11489;50.834;6.752;2022-12-18T04:32:22;-6.50;90.20
22645;DHT22;11489;50.834;6.752;2022-12-18T04:34:47;-6.50;90.30
22645;DHT22;11489;50.834;6.752;2022-12-18T04:37:13;-6.50;90.30
22645;DHT22;11489;50.834;6.752;2022-12-18T04:39:39;-6.50;90.30
22645;DHT22;11489;50.834;6.752;2022-12-18T04:42:04;-6.50;90.30
22645;DHT22;11489;50.834;6.752;2022-12-18T04:44:33;-6.50;90.30
22645;DHT22;11489;50.834;6.752;2022-12-18T04:46:58;-6.50;90.30
22645;DHT22;11489;50.834;6.752;2022-12-18T04:49:24;-6.40;90.40
22645;DHT22;11489;50.834;6.752;2022-12-18T04:51:50;-6.40;90.40
22645;DHT22;11489;50.834;6.752;2022-12-18T04:54:15;-6.40;90.40
22645;DHT22;11489;50.834;6.752;2022-12-18T04:56:41;-6.40;90.40
22645;DHT22;11489;50.834;6.752;2022-12-18T04:59:07;-6.40;90.40
22645;DHT22;11489;50.834;6.752;2022-12-18T05:01:33;-6.40;90.50
22645;DHT22;11489;50.834;6.752;2022-12-18T05:03:59;-6.30;90.50
22645;DHT22;11489;50.834;6.752;2022-12-18T05:06:25;-6.30;90.50
22645;DHT22;11489;50.834;6.752;2022-12-18T05:08:50;-6.30;90.50
22645;DHT22;11489;50.834;6.752;2022-12-18T05:11:16;-6.30;90.50
22645;DHT22;11489;50.834;6.752;2022-12-18T05:13:43;-6.30;90.50
22645;DHT22;11489;50.834;6.752;2022-12-18T05:16:10;-6.20;90.50
22645;DHT22;11489;50.834;6.752;2022-12-18T05:18:36;-6.20;90.50
22645;DHT22;11489;50.834;6.752;2022-12-18T05:21:02;-6.20;90.50
22645;DHT22;11489;50.834;6.752;2022-12-18T05:23:29;-6.20;90.50
22645;DHT22;11489;50.834;6.752;2022-12-18T05:25:57;-6.20;90.50
22645;DHT22;11489;50.834;6.752;2022-12-18T05:28:25;-6.20;90.50
22645;DHT22;11489;50.834;6.752;2022-12-18T05:30:55;-6.10;90.50
22645;DHT22;11489;50.834;6.752;2022-12-18T05:33:22;-6.10;90.50
22645;DHT22;11489;50.834;6.752;2022-12-18T05:35:53;-6.10;90.50
22645;DHT22;11489;50.834;6.752;2022-12-18T05:38:21;-6.10;90.50
22645;DHT22;11489;50.834;6.752;2022-12-18T05:40:50;-6.10;90.50
22645;DHT22;11489;50.834;6.752;2022-12-18T05:43:16;-6.10;90.50
22645;DHT22;11489;50.834;6.752;2022-12-18T05:45:45;-6.10;90.50
22645;DHT22;11489;50.834;6.752;2022-12-18T05:48:12;-6.10;90.50
22645;DHT22;11489;50.834;6.752;2022-12-18T05:50:39;-6.00;90.50
22645;DHT22;11489;50.834;6.752;2022-12-18T05:53:05;-6.00;90.50
22645;DHT22;11489;50.834;6.752;2022-12-18T05:55:39;-6.00;90.50
22645;DHT22;11489;50.834;6.752;2022-12-18T05:58:06;-6.00;90.50
22645;DHT22;11489;50.834;6.752;2022-12-18T06:00:33;-6.00;90.40
22645;DHT22;11489;50.834;6.752;2022-12-18T06:03:00;-6.00;90.50
22645;DHT22;11489;50.834;6.752;2022-12-18T06:05:26;-6.00;90.50
22645;DHT22;11489;50.834;6.752;2022-12-18T06:07:52;-6.00;90.40
22645;DHT22;11489;50.834;6.752;2022-12-18T06:10:18;-6.00;90.30
22645;DHT22;11489;50.834;6.752;2022-12-18T06:12:44;-6.00;90.40
22645;DHT22;11489;50.834;6.752;2022-12-18T06:15:09;-5.90;90.40
22645;DHT22;11489;50.834;6.752;2022-12-18T06:17:35;-5.90;90.40
22645;DHT22;11489;50.834;6.752;2022-12-18T06:20:01;-5.90;90.40
22645;DHT22;11489;50.834;6.752;2022-12-18T06:22:27;-5.90;90.40
22645;DHT22;11489;50.834;6.752;2022-12-18T06:24:53;-5.90;90.40
22645;DHT22;11489;50.834;6.752;2022-12-18T06:27:19;-5.90;90.40
22645;DHT22;11489;50.834;6.752;2022-12-18T06:29:44;-5.90;90.40
22645;DHT22;11489;50.834;6.752;2022-12-18T06:32:11;-5.90;90.40
22645;DHT22;11489;50.834;6.752;2022-12-18T06:34:39;-5.90;90.40
22645;DHT22;11489;50.834;6.752;2022-12-18T06:37:05;-5.90;90.40
22645;DHT22;11489;50.834;6.752;2022-12-18T06:39:31;-5.90;90.40
22645;DHT22;11489;50.834;6.752;2022-12-18T06:41:56;-5.90;90.40
22645;DHT22;11489;50.834;6.752;2022-12-18T06:44:22;-5.90;90.40
22645;DHT22;11489;50.834;6.752;2022-12-18T06:46:48;-5.90;90.40
22645;DHT22;11489;50.834;6.752;2022-12-18T06:49:13;-5.90;90.40
22645;DHT22;11489;50.834;6.752;2022-12-18T06:51:39;-5.90;90.40
22645;DHT22;11489;50.834;6.752;2022-12-18T06:54:05;-5.90;90.40
22645;DHT22;11489;50.834;6.752;2022-12-18T06:56:30;-5.90;90.40
22645;DHT22;11489;50.834;6.752;2022-12-18T06:58:56;-5.90;90.40
22645;DHT22;11489;50.834;6.752;2022-12-18T07:01:22;-5.90;90.40
22645;DHT22;11489;50.834;6.752;2022-12-18T07:03:52;-5.90;90.40
22645;DHT22;11489;50.834;6.752;2022-12-18T07:06:20;-5.90;90.40
22645;DHT22;11489;50.834;6.752;2022-12-18T07:08:47;-5.90;90.40
22645;DHT22;11489;50.834;6.752;2022-12-18T07:11:13;-5.80;90.40
22645;DHT22;11489;50.834;6.752;2022-12-18T07:13:39;-5.80;90.40
22645;DHT22;11489;50.834;6.752;2022-12-18T07:16:09;-5.80;90.40
22645;DHT22;11489;50.834;6.752;2022-12-18T07:18:36;-5.80;90.40
22645;DHT22;11489;50.834;6.752;2022-12-18T07:21:06;-5.80;90.40
22645;DHT22;11489;50.834;6.752;2022-12-18T07:23:33;-5.80;90.40
22645;DHT22;11489;50.834;6.752;2022-12-18T07:26:05;-5.80;90.40
22645;DHT22;11489;50.834;6.752;2022-12-18T07:28:31;-5.80;90.40
22645;DHT22;11489;50.834;6.752;2022-12-18T07:30:58;-5.80;90.40
22645;DHT22;11489;50.834;6.752;2022-12-18T07:33:24;-5.80;90.40
22645;DHT22;11489;50.834;6.752;2022-12-18T07:35:51;-5.80;90.40
22645;DHT22;11489;50.834;6.752;2022-12-18T07:38:16;-5.80;90.40
22645;DHT22;11489;50.834;6.752;2022-12-18T07:40:42;-5.80;90.40
22645;DHT22;11489;50.834;6.752;2022-12-18T07:43:07;-5.80;90.50
22645;DHT22;11489;50.834;6.752;2022-12-18T07:45:33;-5.80;90.50
22645;DHT22;11489;50.834;6.752;2022-12-18T07:47:59;-5.80;90.50
22645;DHT22;11489;50.834;6.752;2022-12-18T07:50:24;-5.70;90.50
22645;DHT22;11489;50.834;6.752;2022-12-18T07:52:50;-5.70;90.50
22645;DHT22;11489;50.834;6.752;2022-12-18T07:55:16;-5.70;90.60
22645;DHT22;11489;50.834;6.752;2022-12-18T07:57:41;-5.70;90.60
22645;DHT22;11489;50.834;6.752;2022-12-18T08:00:07;-5.70;90.60
22645;DHT22;11489;50.834;6.752;2022-12-18T08:02:33;-5.60;90.70
22645;DHT22;11489;50.834;6.752;2022-12-18T08:04:59;-5.60;90.70
22645;DHT22;11489;50.834;6.752;2022-12-18T08:07:25;-5.60;90.80
22645;DHT22;11489;50.834;6.752;2022-12-18T08:09:50;-5.60;90.80
22645;DHT22;11489;50.834;6.752;2022-12-18T08:12:16;-5.60;90.80
22645;DHT22;11489;50.834;6.752;2022-12-18T08:14:42;-5.50;90.90
22645;DHT22;11489;50.834;6.752;2022-12-18T08:17:07;-5.50;90.90
22645;DHT22;11489;50.834;6.752;2022-12-18T08:19:33;-5.40;91.00
22645;DHT22;11489;50.834;6.752;2022-12-18T08:21:58;-5.40;91.00
22645;DHT22;11489;50.834;6.752;2022-12-18T08:24:24;-5.30;91.10
22645;DHT22;11489;50.834;6.752;2022-12-18T08:26:51;-5.30;91.10
22645;DHT22;11489;50.834;6.752;2022-12-18T08:29:16;-5.20;91.10
22645;DHT22;11489;50.834;6.752;2022-12-18T08:31:42;-5.20;91.20
22645;DHT22;11489;50.834;6.752;2022-12-18T08:34:08;-5.10;91.20
22645;DHT22;11489;50.834;6.752;2022-12-18T08:36:34;-5.10;91.20
22645;DHT22;11489;50.834;6.752;2022-12-18T08:39:00;-5.00;91.30
22645;DHT22;11489;50.834;6.752;2022-12-18T08:41:26;-4.90;91.30
22645;DHT22;11489;50.834;6.752;2022-12-18T08:43:52;-4.90;91.30
22645;DHT22;11489;50.834;6.752;2022-12-18T08:46:38;-4.80;91.30
22645;DHT22;11489;50.834;6.752;2022-12-18T08:49:06;-4.80;91.30
22645;DHT22;11489;50.834;6.752;2022-12-18T08:51:33;-4.70;91.30
22645;DHT22;11489;50.834;6.752;2022-12-18T08:53:58;-4.70;91.40
22645;DHT22;11489;50.834;6.752;2022-12-18T08:56:24;-4.60;91.40
22645;DHT22;11489;50.834;6.752;2022-12-18T08:58:54;-4.50;91.50
22645;DHT22;11489;50.834;6.752;2022-12-18T09:01:20;-4.40;91.60
22645;DHT22;11489;50.834;6.752;2022-12-18T09:03:46;-4.40;91.60
22645;DHT22;11489;50.834;6.752;2022-12-18T09:06:20;-4.30;91.60
22645;DHT22;11489;50.834;6.752;2022-12-18T09:08:46;-4.20;91.70
22645;DHT22;11489;50.834;6.752;2022-12-18T09:11:34;-4.10;91.70
22645;DHT22;11489;50.834;6.752;2022-12-18T09:14:00;-4.10;91.70
22645;DHT22;11489;50.834;6.752;2022-12-18T09:16:28;-4.00;91.70
22645;DHT22;11489;50.834;6.752;2022-12-18T09:18:57;-3.90;91.60
22645;DHT22;11489;50.834;6.752;2022-12-18T09:21:31;-3.80;91.60
22645;DHT22;11489;50.834;6.752;2022-12-18T09:23:57;-3.80;91.60
22645;DHT22;11489;50.834;6.752;2022-12-18T09:26:24;-3.70;91.70
22645;DHT22;11489;50.834;6.752;2022-12-18T09:28:50;-3.70;91.80
22645;DHT22;11489;50.834;6.752;2022-12-18T09:31:18;-3.60;91.90
22645;DHT22;11489;50.834;6.752;2022-12-18T09:33:46;-3.50;92.00
22645;DHT22;11489;50.834;6.752;2022-12-18T09:36:14;-3.40;92.10
22645;DHT22;11489;50.834;6.752;2022-12-18T09:38:40;-3.20;92.20
22645;DHT22;11489;50.834;6.752;2022-12-18T09:41:18;-3.20;92.10
22645;DHT22;11489;50.834;6.752;2022-12-18T09:43:55;-3.10;92.10
22645;DHT22;11489;50.834;6.752;2022-12-18T09:46:31;-2.90;92.10
22645;DHT22;11489;50.834;6.752;2022-12-18T09:49:01;-2.90;92.10
22645;DHT22;11489;50.834;6.752;2022-12-18T09:51:50;-2.80;92.10
22645;DHT22;11489;50.834;6.752;2022-12-18T09:54:39;-2.60;92.10
22645;DHT22;11489;50.834;6.752;2022-12-18T09:57:05;-2.60;92.10
22645;DHT22;11489;50.834;6.752;2022-12-18T09:59:36;-2.50;92.10
22645;DHT22;11489;50.834;6.752;2022-12-18T10:02:21;-2.40;92.10
22645;DHT22;11489;50.834;6.752;2022-12-18T10:10:52;-2.20;92.20
22645;DHT22;11489;50.834;6.752;2022-12-18T10:13:34;-2.10;92.30
22645;DHT22;11489;50.834;6.752;2022-12-18T10:16:14;-2.00;92.40
22645;DHT22;11489;50.834;6.752;2022-12-18T10:21:39;-1.80;92.60
22645;DHT22;11489;50.834;6.752;2022-12-18T10:26:52;-1.50;92.80
22645;DHT22;11489;50.834;6.752;2022-12-18T10:29:19;-1.30;92.90
22645;DHT22;11489;50.834;6.752;2022-12-18T10:31:44;-1.20;93.10
22645;DHT22;11489;50.834;6.752;2022-12-18T10:34:11;-1.10;93.00
22645;DHT22;11489;50.834;6.752;2022-12-18T10:36:37;-0.90;93.00
22645;DHT22;11489;50.834;6.752;2022-12-18T10:39:16;-0.80;92.80
22645;DHT22;11489;50.834;6.752;2022-12-18T10:41:42;-0.70;92.60
22645;DHT22;11489;50.834;6.752;2022-12-18T10:44:19;-0.60;92.60
22645;DHT22;11489;50.834;6.752;2022-12-18T10:46:51;-0.60;92.40
22645;DHT22;11489;50.834;6.752;2022-12-18T10:49:23;-0.50;92.40
22645;DHT22;11489;50.834;6.752;2022-12-18T10:51:51;-0.50;92.20
22645;DHT22;11489;50.834;6.752;2022-12-18T10:54:29;-0.50;92.20
22645;DHT22;11489;50.834;6.752;2022-12-18T10:57:27;-0.50;92.00
22645;DHT22;11489;50.834;6.752;2022-12-18T10:59:56;-0.50;92.00
22645;DHT22;11489;50.834;6.752;2022-12-18T11:02:33;-0.50;92.10
22645;DHT22;11489;50.834;6.752;2022-12-18T11:05:00;-0.50;92.00
22645;DHT22;11489;50.834;6.752;2022-12-18T11:07:25;-0.50;92.10
22645;DHT22;11489;50.834;6.752;2022-12-18T11:10:18;-0.50;92.10
22645;DHT22;11489;50.834;6.752;2022-12-18T11:12:45;-0.50;92.10
22645;DHT22;11489;50.834;6.752;2022-12-18T11:15:20;-0.40;92.10
22645;DHT22;11489;50.834;6.752;2022-12-18T11:17:48;-0.40;92.10
22645;DHT22;11489;50.834;6.752;2022-12-18T11:20:34;-0.40;92.00
22645;DHT22;11489;50.834;6.752;2022-12-18T11:23:03;-0.40;91.90
22645;DHT22;11489;50.834;6.752;2022-12-18T11:25:30;-0.40;92.00
22645;DHT22;11489;50.834;6.752;2022-12-18T11:28:01;-0.40;92.00
22645;DHT22;11489;50.834;6.752;2022-12-18T11:30:34;-0.40;91.90
22645;DHT22;11489;50.834;6.752;2022-12-18T11:33:16;-0.40;91.90
22645;DHT22;11489;50.834;6.752;2022-12-18T11:35:51;-0.40;91.70
22645;DHT22;11489;50.834;6.752;2022-12-18T11:43:53;-0.40;91.90
22645;DHT22;11489;50.834;6.752;2022-12-18T11:46:38;-0.40;91.90
22645;DHT22;11489;50.834;6.752;2022-12-18T11:49:14;-0.40;91.90
22645;DHT22;11489;50.834;6.752;2022-12-18T11:51:54;-0.40;92.00
22645;DHT22;11489;50.834;6.752;2022-12-18T11:54:21;-0.40;91.90
22645;DHT22;11489;50.834;6.752;2022-12-18T11:57:02;-0.40;92.00
22645;DHT22;11489;50.834;6.752;2022-12-18T12:05:18;-0.30;91.90
22645;DHT22;11489;50.834;6.752;2022-12-18T12:13:03;-0.30;92.00
22645;DHT22;11489;50.834;6.752;2022-12-18T12:15:43;-0.30;91.90
22645;DHT22;11489;50.834;6.752;2022-12-18T12:21:25;-0.30;91.80
22645;DHT22;11489;50.834;6.752;2022-12-18T12:24:18;-0.30;91.80
22645;DHT22;11489;50.834;6.752;2022-12-18T12:26:56;-0.20;91.70
22645;DHT22;11489;50.834;6.752;2022-12-18T12:34:51;-0.30;91.80
22645;DHT22;11489;50.834;6.752;2022-12-18T12:37:40;-0.30;91.90
22645;DHT22;11489;50.834;6.752;2022-12-18T12:40:13;-0.20;92.00
22645;DHT22;11489;50.834;6.752;2022-12-18T12:42:46;-0.20;92.00
22645;DHT22;11489;50.834;6.752;2022-12-18T12:48:19;-0.20;91.90
22645;DHT22;11489;50.834;6.752;2022-12-18T12:50:46;-0.20;91.90
22645;DHT22;11489;50.834;6.752;2022-12-18T12:53:29;-0.20;91.90
22645;DHT22;11489;50.834;6.752;2022-12-18T12:55:56;-0.20;92.00
22645;DHT22;11489;50.834;6.752;2022-12-18T12:58:52;-0.20;92.00
22645;DHT22;11489;50.834;6.752;2022-12-18T13:01:41;-0.20;91.90
22645;DHT22;11489;50.834;6.752;2022-12-18T13:07:06;-0.20;91.90
22645;DHT22;11489;50.834;6.752;2022-12-18T13:12:58;-0.20;91.80
22645;DHT22;11489;50.834;6.752;2022-12-18T13:15:40;-0.20;91.80
22645;DHT22;11489;50.834;6.752;2022-12-18T13:20:49;-0.30;91.90
22645;DHT22;11489;50.834;6.752;2022-12-18T13:26:10;-0.30;91.80
22645;DHT22;11489;50.834;6.752;2022-12-18T13:34:19;-0.40;91.70
22645;DHT22;11489;50.834;6.752;2022-12-18T13:36:45;-0.40;91.90
22645;DHT22;11489;50.834;6.752;2022-12-18T13:39:20;-0.40;92.00
22645;DHT22;11489;50.834;6.752;2022-12-18T13:42:31;-0.40;92.00
22645;DHT22;11489;50.834;6.752;2022-12-18T13:44:39;-0.40;92.00
22645;DHT22;11489;50.834;6.752;2022-12-18T13:49:54;-0.40;91.70
22645;DHT22;11489;50.834;6.752;2022-12-18T13:52:26;-0.40;91.90
22645;DHT22;11489;50.834;6.752;2022-12-18T13:55:01;-0.40;91.90
22645;DHT22;11489;50.834;6.752;2022-12-18T13:57:33;-0.40;92.00
22645;DHT22;11489;50.834;6.752;2022-12-18T14:02:54;-0.40;91.70
22645;DHT22;11489;50.834;6.752;2022-12-18T14:05:34;-0.40;91.80
22645;DHT22;11489;50.834;6.752;2022-12-18T14:08:05;-0.40;91.60
22645;DHT22;11489;50.834;6.752;2022-12-18T14:10:32;-0.50;91.80
22645;DHT22;11489;50.834;6.752;2022-12-18T14:13:05;-0.50;91.80
22645;DHT22;11489;50.834;6.752;2022-12-18T14:15:33;-0.50;91.70
22645;DHT22;11489;50.834;6.752;2022-12-18T14:18:30;-0.50;91.70
22645;DHT22;11489;50.834;6.752;2022-12-18T14:21:00;-0.60;91.90
22645;DHT22;11489;50.834;6.752;2022-12-18T14:23:41;-0.60;91.70
22645;DHT22;11489;50.834;6.752;2022-12-18T14:26:28;-0.60;91.70
22645;DHT22;11489;50.834;6.752;2022-12-18T14:29:17;-0.60;91.70
22645;DHT22;11489;50.834;6.752;2022-12-18T14:31:43;-0.60;91.90
22645;DHT22;11489;50.834;6.752;2022-12-18T14:34:18;-0.60;91.80
22645;DHT22;11489;50.834;6.752;2022-12-18T14:36:53;-0.70;91.70
22645;DHT22;11489;50.834;6.752;2022-12-18T14:39:21;-0.70;91.70
22645;DHT22;11489;50.834;6.752;2022-12-18T14:41:48;-0.70;91.70
22645;DHT22;11489;50.834;6.752;2022-12-18T14:44:15;-0.80;91.80
22645;DHT22;11489;50.834;6.752;2022-12-18T14:46:44;-0.80;91.70
22645;DHT22;11489;50.834;6.752;2022-12-18T14:49:30;-0.80;91.80
22645;DHT22;11489;50.834;6.752;2022-12-18T14:52:01;-0.80;91.70
22645;DHT22;11489;50.834;6.752;2022-12-18T14:54:29;-0.80;91.80
22645;DHT22;11489;50.834;6.752;2022-12-18T14:57:19;-0.80;91.80
22645;DHT22;11489;50.834;6.752;2022-12-18T14:59:46;-0.90;91.70
22645;DHT22;11489;50.834;6.752;2022-12-18T15:02:27;-0.90;91.80
22645;DHT22;11489;50.834;6.752;2022-12-18T15:05:05;-0.90;91.60
22645;DHT22;11489;50.834;6.752;2022-12-18T15:07:49;-0.90;91.70
22645;DHT22;11489;50.834;6.752;2022-12-18T15:10:21;-1.00;91.70
22645;DHT22;11489;50.834;6.752;2022-12-18T15:23:26;-1.10;91.60
22645;DHT22;11489;50.834;6.752;2022-12-18T15:25:57;-1.10;91.50
22645;DHT22;11489;50.834;6.752;2022-12-18T15:28:44;-1.10;91.60
22645;DHT22;11489;50.834;6.752;2022-12-18T15:33:45;-1.10;91.70
22645;DHT22;11489;50.834;6.752;2022-12-18T15:36:16;-1.20;91.60
22645;DHT22;11489;50.834;6.752;2022-12-18T15:38:46;-1.20;91.70
22645;DHT22;11489;50.834;6.752;2022-12-18T15:41:17;-1.20;91.70
22645;DHT22;11489;50.834;6.752;2022-12-18T15:43:44;-1.20;91.60
22645;DHT22;11489;50.834;6.752;2022-12-18T15:46:15;-1.20;91.60
22645;DHT22;11489;50.834;6.752;2022-12-18T15:48:49;-1.20;91.50
22645;DHT22;11489;50.834;6.752;2022-12-18T15:51:21;-1.30;91.50
22645;DHT22;11489;50.834;6.752;2022-12-18T15:53:49;-1.20;91.50
22645;DHT22;11489;50.834;6.752;2022-12-18T15:56:16;-1.30;91.40
22645;DHT22;11489;50.834;6.752;2022-12-18T15:59:01;-1.20;91.40
22645;DHT22;11489;50.834;6.752;2022-12-18T16:01:29;-1.30;91.30
22645;DHT22;11489;50.834;6.752;2022-12-18T16:03:55;-1.30;91.20
22645;DHT22;11489;50.834;6.752;2022-12-18T16:06:22;-1.30;91.30
22645;DHT22;11489;50.834;6.752;2022-12-18T16:08:47;-1.30;91.40
22645;DHT22;11489;50.834;6.752;2022-12-18T16:11:30;-1.30;91.30
22645;DHT22;11489;50.834;6.752;2022-12-18T16:14:21;-1.20;91.30
22645;DHT22;11489;50.834;6.752;2022-12-18T16:16:50;-1.20;91.60
22645;DHT22;11489;50.834;6.752;2022-12-18T16:19:16;-1.20;91.70
22645;DHT22;11489;50.834;6.752;2022-12-18T16:21:42;-1.20;91.80
22645;DHT22;11489;50.834;6.752;2022-12-18T16:24:16;-1.20;91.80
22645;DHT22;11489;50.834;6.752;2022-12-18T16:26:43;-1.20;91.70
22645;DHT22;11489;50.834;6.752;2022-12-18T16:29:09;-1.20;91.70
22645;DHT22;11489;50.834;6.752;2022-12-18T16:31:36;-1.10;91.70
22645;DHT22;11489;50.834;6.752;2022-12-18T16:37:02;-1.10;91.50
22645;DHT22;11489;50.834;6.752;2022-12-18T16:39:28;-1.10;91.70
22645;DHT22;11489;50.834;6.752;2022-12-18T16:41:56;-1.10;91.60
22645;DHT22;11489;50.834;6.752;2022-12-18T16:44:22;-1.00;91.60
22645;DHT22;11489;50.834;6.752;2022-12-18T16:46:47;-1.00;91.60
22645;DHT22;11489;50.834;6.752;2022-12-18T16:49:14;-1.00;91.60
22645;DHT22;11489;50.834;6.752;2022-12-18T16:51:40;-1.00;91.70
22645;DHT22;11489;50.834;6.752;2022-12-18T16:54:06;-1.00;91.60
22645;DHT22;11489;50.834;6.752;2022-12-18T16:56:32;-1.00;91.60
22645;DHT22;11489;50.834;6.752;2022-12-18T16:58:59;-1.00;91.60
22645;DHT22;11489;50.834;6.752;2022-12-18T17:01:27;-1.00;91.50
22645;DHT22;11489;50.834;6.752;2022-12-18T17:04:02;-1.00;91.40
22645;DHT22;11489;50.834;6.752;2022-12-18T17:06:30;-1.00;91.30
22645;DHT22;11489;50.834;6.752;2022-12-18T17:09:07;-1.00;91.60
22645;DHT22;11489;50.834;6.752;2022-12-18T17:11:34;-0.90;91.60
22645;DHT22;11489;50.834;6.752;2022-12-18T17:14:09;-1.00;91.60
22645;DHT22;11489;50.834;6.752;2022-12-18T17:16:35;-0.90;91.60
22645;DHT22;11489;50.834;6.752;2022-12-18T17:19:00;-1.00;91.60
22645;DHT22;11489;50.834;6.752;2022-12-18T17:21:26;-1.00;91.60
22645;DHT22;11489;50.834;6.752;2022-12-18T17:23:53;-1.00;91.50
22645;DHT22;11489;50.834;6.752;2022-12-18T17:26:18;-1.00;92.00
22645;DHT22;11489;50.834;6.752;2022-12-18T17:28:44;-1.00;91.70
22645;DHT22;11489;50.834;6.752;2022-12-18T17:31:16;-1.00;91.80
22645;DHT22;11489;50.834;6.752;2022-12-18T17:33:43;-1.00;91.70
22645;DHT22;11489;50.834;6.752;2022-12-18T17:36:09;-1.00;91.80
22645;DHT22;11489;50.834;6.752;2022-12-18T17:38:35;-1.00;91.80